createdAt,value
2019-01-29T00:02:01.431Z,3.90
2019-01-29T00:04:39.127Z,4.37
2019-01-29T00:07:10.085Z,4.20
2019-01-29T00:09:41.031Z,3.67
2019-01-29T00:12:11.936Z,4.00
2019-01-29T00:14:42.968Z,3.57
2019-01-29T00:17:14.054Z,4.17
2019-01-29T00:19:44.952Z,4.40
2019-01-29T00:22:15.999Z,3.87
2019-01-29T00:24:47.158Z,3.93
2019-01-29T00:27:18.035Z,3.93
2019-01-29T00:29:48.901Z,4.27
2019-01-29T00:32:19.858Z,4.47
2019-01-29T00:34:50.884Z,4.20
2019-01-29T00:37:21.835Z,3.93
2019-01-29T00:39:52.851Z,3.53
2019-01-29T00:42:23.853Z,3.23
2019-01-29T00:44:54.790Z,2.93
2019-01-29T00:47:25.629Z,3.40
2019-01-29T00:49:56.584Z,3.40
2019-01-29T00:52:27.552Z,3.37
2019-01-29T00:54:58.405Z,2.97
2019-01-29T00:57:29.247Z,3.07
2019-01-29T01:00:00.292Z,2.93
2019-01-29T01:02:31.242Z,3.43
2019-01-29T01:05:02.280Z,3.27
2019-01-29T01:07:33.384Z,2.60
2019-01-29T01:10:07.517Z,3.23
2019-01-29T01:12:38.453Z,2.57
2019-01-29T01:15:11.474Z,3.00
2019-01-29T01:17:42.511Z,3.13
2019-01-29T01:20:18.182Z,3.63
2019-01-29T01:22:51.171Z,2.90
2019-01-29T01:25:21.764Z,2.70
2019-01-29T01:27:52.698Z,3.23
2019-01-29T01:30:23.713Z,3.50
2019-01-29T01:32:54.665Z,2.67
2019-01-29T01:35:25.531Z,3.13
2019-01-29T01:37:56.475Z,2.90
2019-01-29T01:40:27.479Z,3.13
2019-01-29T01:42:58.781Z,3.10
2019-01-29T01:45:29.714Z,3.07
2019-01-29T01:48:00.891Z,3.13
2019-01-29T01:50:31.766Z,2.70
2019-01-29T01:53:02.689Z,3.10
2019-01-29T01:55:33.733Z,3.23
2019-01-29T01:58:04.819Z,3.50
2019-01-29T02:00:36.312Z,3.57
2019-01-29T02:03:07.307Z,4.13
2019-01-29T02:05:38.331Z,3.80
2019-01-29T02:08:09.269Z,4.20
2019-01-29T02:10:40.330Z,3.60
2019-01-29T02:13:11.340Z,4.20
2019-01-29T02:15:42.391Z,3.87
2019-01-29T02:18:13.413Z,4.13
2019-01-29T02:20:44.445Z,4.00
2019-01-29T02:23:15.459Z,4.30
2019-01-29T02:25:46.396Z,4.30
2019-01-29T02:28:17.525Z,4.50
2019-01-29T02:30:48.514Z,4.30
2019-01-29T02:33:19.487Z,4.10
2019-01-29T02:35:50.423Z,4.27
2019-01-29T02:38:21.378Z,4.73
2019-01-29T02:40:52.647Z,4.80
2019-01-29T02:43:23.664Z,4.40
2019-01-29T02:45:54.602Z,4.27
2019-01-29T02:48:25.699Z,4.20
2019-01-29T02:50:56.645Z,4.47
2019-01-29T02:53:27.616Z,4.43
2019-01-29T02:55:58.676Z,4.50
2019-01-29T02:58:29.544Z,4.10
2019-01-29T03:01:00.491Z,4.23
2019-01-29T03:03:31.494Z,4.27
2019-01-29T03:06:02.468Z,4.17
2019-01-29T03:08:33.472Z,4.50
2019-01-29T03:11:04.615Z,5.20
2019-01-29T03:13:35.538Z,4.43
2019-01-29T03:16:06.488Z,4.63
2019-01-29T03:18:37.419Z,4.40
2019-01-29T03:21:08.366Z,4.37
2019-01-29T03:23:39.202Z,3.93
2019-01-29T03:26:10.199Z,4.77
2019-01-29T03:28:41.093Z,4.60
2019-01-29T03:31:12.027Z,5.27
2019-01-29T03:33:42.912Z,4.90
2019-01-29T03:36:13.916Z,4.80
2019-01-29T03:38:44.862Z,5.03
2019-01-29T03:41:15.853Z,4.87
2019-01-29T03:43:46.791Z,4.43
2019-01-29T03:46:17.815Z,4.63
2019-01-29T03:48:48.763Z,5.07
2019-01-29T03:51:19.851Z,4.57
2019-01-29T03:53:50.864Z,4.43
2019-01-29T03:56:21.790Z,4.20
2019-01-29T03:58:52.665Z,4.23
2019-01-29T04:01:23.621Z,4.23
2019-01-29T04:03:54.561Z,4.13
2019-01-29T04:06:25.519Z,4.13
2019-01-29T04:08:56.434Z,4.23
2019-01-29T04:11:27.435Z,4.00
2019-01-29T04:13:58.363Z,4.30
2019-01-29T04:16:29.304Z,4.57
2019-01-29T04:19:00.302Z,4.53
2019-01-29T04:21:31.261Z,4.13
2019-01-29T04:24:02.154Z,4.70
2019-01-29T04:26:33.113Z,4.10
2019-01-29T04:29:04.222Z,4.37
2019-01-29T04:31:35.182Z,4.30
2019-01-29T04:34:06.203Z,4.40
2019-01-29T04:36:37.254Z,3.97
2019-01-29T04:39:08.730Z,4.07
2019-01-29T04:41:39.684Z,3.57
2019-01-29T04:44:10.598Z,4.07
2019-01-29T04:46:41.755Z,4.03
2019-01-29T04:49:12.646Z,4.10
2019-01-29T04:51:43.523Z,4.00
2019-01-29T04:54:14.505Z,4.00
2019-01-29T04:56:45.450Z,4.23
2019-01-29T04:59:16.394Z,4.23
2019-01-29T05:01:47.319Z,4.07
2019-01-29T05:04:18.309Z,3.60
2019-01-29T05:06:49.840Z,4.00
2019-01-29T05:09:20.813Z,4.20
2019-01-29T05:11:51.754Z,3.87
2019-01-29T05:14:22.705Z,3.93
2019-01-29T05:16:53.642Z,4.30
2019-01-29T05:19:24.530Z,4.73
2019-01-29T05:21:55.464Z,3.93
2019-01-29T05:24:26.481Z,4.13
2019-01-29T05:26:57.500Z,4.47
2019-01-29T05:29:28.455Z,4.30
2019-01-29T05:31:59.591Z,4.10
2019-01-29T05:34:30.578Z,4.73
2019-01-29T05:37:01.594Z,3.80
2019-01-29T05:39:32.496Z,4.07
2019-01-29T05:42:03.452Z,3.93
2019-01-29T05:44:34.419Z,3.67
2019-01-29T05:47:05.457Z,3.90
2019-01-29T05:49:36.518Z,4.20
2019-01-29T05:52:07.523Z,3.30
2019-01-29T05:54:38.463Z,3.80
2019-01-29T05:57:09.386Z,3.93
2019-01-29T05:59:40.479Z,3.70
2019-01-29T06:02:11.571Z,3.60
2019-01-29T06:04:42.497Z,4.77
2019-01-29T06:07:13.447Z,3.50
2019-01-29T06:09:44.629Z,3.90
2019-01-29T06:12:15.609Z,2.80
2019-01-29T06:14:46.666Z,3.53
2019-01-29T06:17:17.535Z,3.47
2019-01-29T06:19:48.394Z,3.50
2019-01-29T06:22:19.551Z,3.27
2019-01-29T06:24:50.365Z,3.37
2019-01-29T06:27:21.312Z,3.50
2019-01-29T06:29:52.266Z,3.37
2019-01-29T06:32:23.141Z,3.83
2019-01-29T06:34:54.139Z,3.80
2019-01-29T06:37:25.162Z,3.50
2019-01-29T06:39:56.040Z,3.50
2019-01-29T06:42:27.067Z,3.77
2019-01-29T06:44:58.105Z,3.43
2019-01-29T06:47:29.194Z,3.50
2019-01-29T06:50:00.267Z,3.20
2019-01-29T06:52:31.294Z,3.30
2019-01-29T06:55:02.243Z,3.83
2019-01-29T06:57:33.200Z,3.33
2019-01-29T07:00:07.081Z,4.03
2019-01-29T07:02:38.077Z,3.70
2019-01-29T07:05:09.088Z,3.90
2019-01-29T07:07:40.100Z,3.83
2019-01-29T07:10:14.111Z,3.77
2019-01-29T07:12:45.234Z,4.17
2019-01-29T07:15:20.350Z,3.97
2019-01-29T07:17:51.210Z,3.70
2019-01-29T07:20:22.170Z,4.40
2019-01-29T07:22:53.162Z,3.83
2019-01-29T07:25:24.080Z,3.53
2019-01-29T07:27:55.135Z,4.03
2019-01-29T07:30:26.091Z,3.93
2019-01-29T07:32:57.130Z,4.13
2019-01-29T07:35:28.114Z,3.90
2019-01-29T07:37:59.078Z,4.13
2019-01-29T07:40:30.154Z,4.00
2019-01-29T07:43:01.107Z,3.87
2019-01-29T07:45:32.027Z,4.10
2019-01-29T07:48:04.163Z,4.30
2019-01-29T07:50:35.159Z,4.60
2019-01-29T07:53:06.975Z,4.20
2019-01-29T07:55:37.836Z,5.37
2019-01-29T07:58:08.780Z,4.07
2019-01-29T08:00:39.749Z,4.00
2019-01-29T08:03:10.686Z,3.97
2019-01-29T08:05:41.688Z,4.30
2019-01-29T08:08:13.068Z,4.30
2019-01-29T08:10:44.046Z,4.30
2019-01-29T08:13:15.144Z,4.63
2019-01-29T08:15:46.135Z,4.67
2019-01-29T08:18:17.083Z,5.63
2019-01-29T08:20:47.985Z,4.73
2019-01-29T08:23:19.048Z,4.63
2019-01-29T08:25:49.990Z,4.87
2019-01-29T08:28:21.016Z,5.03
2019-01-29T08:30:51.876Z,5.10
2019-01-29T08:33:22.786Z,4.80
2019-01-29T08:35:53.786Z,4.90
2019-01-29T08:38:24.737Z,3.90
2019-01-29T08:40:55.661Z,4.63
2019-01-29T08:43:26.598Z,4.67
2019-01-29T08:45:59.470Z,5.27
2019-01-29T08:48:30.144Z,4.57
2019-01-29T08:51:01.115Z,4.60
2019-01-29T08:53:31.994Z,5.17
2019-01-29T08:56:03.034Z,4.77
2019-01-29T08:58:33.967Z,5.47
2019-01-29T09:01:05.300Z,4.63
2019-01-29T09:03:36.199Z,5.30
2019-01-29T09:06:07.198Z,5.03
2019-01-29T09:08:38.115Z,5.03
2019-01-29T09:11:09.122Z,4.43
2019-01-29T09:13:40.588Z,4.53
2019-01-29T09:16:11.997Z,4.37
2019-01-29T09:18:43.014Z,5.10
2019-01-29T09:21:13.951Z,4.07
2019-01-29T09:23:44.831Z,4.77
2019-01-29T09:26:15.669Z,4.30
2019-01-29T09:28:46.709Z,4.63
2019-01-29T09:31:17.763Z,4.87
2019-01-29T09:33:48.691Z,4.47
2019-01-29T09:36:19.663Z,4.37
2019-01-29T09:38:50.671Z,4.87
2019-01-29T09:41:21.611Z,5.20
2019-01-29T09:43:52.539Z,6.03
2019-01-29T09:46:23.580Z,6.57
2019-01-29T09:48:54.489Z,5.97
2019-01-29T09:51:25.417Z,5.97
2019-01-29T09:53:56.358Z,6.30
2019-01-29T09:56:27.327Z,6.53
2019-01-29T09:58:58.259Z,6.40
2019-01-29T10:01:29.280Z,6.70
2019-01-29T10:04:00.257Z,6.43
2019-01-29T10:06:31.309Z,5.80
2019-01-29T10:09:02.252Z,6.03
2019-01-29T10:11:33.284Z,6.10
2019-01-29T10:14:05.012Z,5.47
2019-01-29T10:16:35.878Z,4.63
2019-01-29T10:19:06.833Z,4.17
2019-01-29T10:21:37.772Z,3.63
2019-01-29T10:24:08.725Z,4.03
2019-01-29T10:26:39.658Z,3.80
2019-01-29T10:29:10.587Z,3.80
2019-01-29T10:31:41.634Z,4.00
2019-01-29T10:34:12.550Z,3.80
2019-01-29T10:36:43.545Z,3.77
2019-01-29T10:39:14.474Z,2.87
2019-01-29T10:41:47.190Z,3.20
2019-01-29T10:44:18.070Z,3.40
2019-01-29T10:46:49.061Z,3.50
2019-01-29T10:49:19.979Z,3.30
2019-01-29T10:51:51.009Z,3.60
2019-01-29T10:54:21.995Z,3.17
2019-01-29T10:56:52.974Z,2.90
2019-01-29T10:59:23.892Z,3.00
2019-01-29T11:01:54.941Z,3.70
2019-01-29T11:04:25.877Z,3.53
2019-01-29T11:06:56.879Z,3.20
2019-01-29T11:09:27.799Z,3.20
2019-01-29T11:11:58.828Z,3.47
2019-01-29T11:14:29.760Z,3.17
2019-01-29T11:17:00.741Z,3.03
2019-01-29T11:19:31.755Z,3.00
2019-01-29T11:22:02.608Z,3.23
2019-01-29T11:24:33.690Z,3.60
2019-01-29T11:27:04.697Z,3.57
2019-01-29T11:29:35.715Z,3.90
2019-01-29T11:32:06.703Z,3.17
2019-01-29T11:34:37.663Z,3.13
2019-01-29T11:37:08.594Z,3.00
2019-01-29T11:39:39.610Z,4.27
2019-01-29T11:42:10.565Z,3.47
2019-01-29T11:44:41.726Z,4.13
2019-01-29T11:47:12.734Z,4.30
2019-01-29T11:49:43.674Z,3.60
2019-01-29T11:52:14.616Z,3.37
2019-01-29T11:54:45.571Z,3.80
2019-01-29T11:57:16.528Z,3.27
2019-01-29T11:59:47.519Z,3.23
2019-01-29T12:02:18.655Z,2.90
2019-01-29T12:04:49.548Z,2.90
2019-01-29T12:07:20.623Z,3.17
2019-01-29T12:09:51.530Z,3.23
2019-01-29T12:12:22.346Z,2.60
2019-01-29T12:14:53.302Z,2.87
2019-01-29T12:17:24.230Z,2.90
2019-01-29T12:19:55.163Z,2.47
2019-01-29T12:22:26.154Z,2.87
2019-01-29T12:24:57.158Z,2.70
2019-01-29T12:27:28.040Z,2.90
2019-01-29T12:29:59.064Z,3.07
2019-01-29T12:32:30.098Z,3.60
2019-01-29T12:35:01.150Z,3.07
2019-01-29T12:37:32.227Z,3.27
2019-01-29T12:40:03.241Z,2.93
2019-01-29T12:42:34.182Z,2.67
2019-01-29T12:45:08.614Z,3.03
2019-01-29T12:47:39.635Z,2.90
2019-01-29T12:50:16.307Z,2.80
2019-01-29T12:52:49.046Z,3.00
2019-01-29T12:55:20.019Z,3.10
2019-01-29T12:57:50.973Z,2.70
2019-01-29T13:00:23.820Z,3.33
2019-01-29T13:02:54.822Z,2.83
2019-01-29T13:05:25.759Z,2.87
2019-01-29T13:07:56.773Z,2.90
2019-01-29T13:10:27.969Z,2.80
2019-01-29T13:12:59.019Z,2.40
2019-01-29T13:15:31.509Z,2.50
2019-01-29T13:18:02.818Z,3.00
2019-01-29T13:20:33.831Z,2.27
2019-01-29T13:23:04.931Z,2.30
2019-01-29T13:25:41.344Z,1.93
2019-01-29T13:28:19.981Z,2.63
2019-01-29T13:30:52.935Z,3.83
2019-01-29T13:33:24.233Z,2.00
2019-01-29T13:35:55.490Z,2.07
2019-01-29T13:38:29.656Z,2.03
2019-01-29T13:41:04.601Z,2.40
2019-01-29T13:43:35.712Z,2.50
2019-01-29T13:46:06.673Z,2.40
2019-01-29T13:48:37.895Z,2.67
2019-01-29T13:51:08.965Z,3.33
2019-01-29T13:53:39.858Z,2.40
2019-01-29T13:56:11.084Z,2.47
2019-01-29T13:58:42.080Z,2.20
2019-01-29T14:01:13.214Z,1.97
2019-01-29T14:03:44.169Z,1.90
2019-01-29T14:06:15.175Z,2.43
2019-01-29T14:08:46.159Z,2.00
2019-01-29T14:11:17.151Z,1.93
2019-01-29T14:13:48.128Z,2.03
2019-01-29T14:16:19.109Z,2.13
2019-01-29T14:18:50.107Z,1.93
2019-01-29T14:21:21.059Z,2.20
2019-01-29T14:23:52.001Z,1.73
2019-01-29T14:26:23.129Z,2.50
2019-01-29T14:28:54.069Z,2.47
2019-01-29T14:32:21.114Z,2.30
2019-01-29T14:34:52.409Z,2.40
2019-01-29T14:37:23.360Z,1.80
2019-01-29T14:40:08.840Z,1.93
2019-01-29T14:42:39.741Z,1.57
2019-01-29T14:45:13.635Z,1.80
2019-01-29T14:47:45.083Z,6.43
2019-01-29T14:50:16.930Z,2.40
2019-01-29T14:52:47.815Z,2.13
2019-01-29T14:55:20.305Z,2.13
2019-01-29T14:57:51.577Z,2.20
2019-01-29T15:00:31.075Z,2.03
2019-01-29T15:03:02.090Z,2.17
2019-01-29T15:05:33.551Z,1.97
2019-01-29T15:08:05.266Z,2.00
2019-01-29T15:10:36.382Z,2.50
2019-01-29T15:13:07.479Z,2.43
2019-01-29T15:15:43.363Z,2.20
2019-01-29T15:18:16.018Z,2.33
2019-01-29T15:20:47.040Z,1.80
2019-01-29T15:23:18.055Z,3.30
2019-01-29T15:25:51.805Z,1.70
2019-01-29T15:28:22.928Z,1.80
2019-01-29T15:30:53.916Z,1.90
2019-01-29T15:33:24.921Z,2.17
2019-01-29T15:35:55.807Z,2.00
2019-01-29T15:38:27.218Z,1.90
2019-01-29T15:40:58.164Z,2.27
2019-01-29T15:43:29.211Z,2.60
2019-01-29T15:46:00.173Z,2.30
2019-01-29T15:48:31.190Z,1.77
2019-01-29T15:51:02.051Z,2.27
2019-01-29T15:53:33.111Z,2.70
2019-01-29T15:56:04.471Z,2.03
2019-01-29T15:58:35.467Z,2.83
2019-01-29T16:01:06.517Z,2.83
2019-01-29T16:03:37.530Z,3.00
2019-01-29T16:06:08.556Z,2.23
2019-01-29T16:08:39.490Z,2.20
2019-01-29T16:11:10.515Z,2.60
2019-01-29T16:13:41.476Z,3.00
2019-01-29T16:16:12.554Z,3.20
2019-01-29T16:18:43.565Z,4.07
2019-01-29T16:21:14.520Z,3.03
2019-01-29T16:23:45.636Z,5.60
2019-01-29T16:26:16.594Z,7.37
2019-01-29T16:28:47.470Z,2.93
2019-01-29T16:31:18.409Z,3.17
2019-01-29T16:33:49.432Z,4.10
2019-01-29T16:36:20.567Z,4.00
2019-01-29T16:38:51.572Z,27.73
2019-01-29T16:41:22.789Z,6.23
2019-01-29T16:43:53.796Z,5.00
2019-01-29T16:46:24.802Z,3.93
2019-01-29T16:48:55.861Z,3.60
2019-01-29T16:51:26.799Z,2.90
2019-01-29T16:53:57.728Z,3.30
2019-01-29T16:56:28.764Z,2.90
2019-01-29T16:59:01.322Z,3.50
2019-01-29T17:01:32.470Z,3.10
2019-01-29T17:04:03.697Z,3.10
2019-01-29T17:06:34.534Z,3.90
2019-01-29T17:09:08.400Z,8.23
2019-01-29T17:11:39.342Z,5.97
2019-01-29T17:14:10.399Z,5.77
2019-01-29T17:16:41.327Z,4.37
2019-01-29T17:19:12.468Z,4.90
2019-01-29T17:21:43.507Z,4.87
2019-01-29T17:24:14.384Z,4.20
2019-01-29T17:26:45.443Z,5.70
2019-01-29T17:29:16.502Z,5.27
2019-01-29T17:31:47.448Z,4.67
2019-01-29T17:34:18.471Z,5.27
2019-01-29T17:36:49.481Z,4.57
2019-01-29T17:39:20.647Z,6.33
2019-01-29T17:41:51.619Z,22.70
2019-01-29T17:44:22.731Z,59.23
2019-01-29T17:46:53.774Z,16.30
2019-01-29T17:49:24.908Z,5.33
2019-01-29T17:51:55.812Z,15.23
2019-01-29T17:54:26.672Z,7.43
2019-01-29T17:56:57.673Z,5.17
2019-01-29T17:59:28.623Z,22.60
2019-01-29T18:01:59.577Z,6.00
2019-01-29T18:04:30.563Z,6.40
2019-01-29T18:07:01.507Z,4.30
2019-01-29T18:09:32.466Z,3.73
2019-01-29T18:12:03.445Z,4.33
2019-01-29T18:14:34.463Z,4.50
2019-01-29T18:17:05.415Z,4.93
2019-01-29T18:19:36.369Z,5.10
2019-01-29T18:22:07.524Z,6.00
2019-01-29T18:24:38.471Z,7.30
2019-01-29T18:27:09.581Z,6.40
2019-01-29T18:29:40.471Z,8.70
2019-01-29T18:32:11.441Z,6.70
2019-01-29T18:34:42.457Z,5.57
2019-01-29T18:37:13.525Z,6.60
2019-01-29T18:39:44.688Z,6.17
2019-01-29T18:42:15.688Z,5.90
2019-01-29T18:44:46.641Z,6.00
2019-01-29T18:47:17.686Z,5.60
2019-01-29T18:49:48.721Z,5.23
2019-01-29T18:52:19.692Z,5.70
2019-01-29T18:54:50.731Z,6.20
2019-01-29T18:57:21.907Z,5.97
2019-01-29T18:59:52.976Z,6.23
2019-01-29T19:02:23.959Z,6.20
2019-01-29T19:04:56.217Z,7.13
2019-01-29T19:07:27.296Z,7.20
2019-01-29T19:09:58.503Z,7.53
2019-01-29T19:12:29.655Z,6.60
2019-01-29T19:15:00.681Z,7.60
2019-01-29T19:17:31.687Z,8.30
2019-01-29T19:20:02.656Z,8.40
2019-01-29T19:22:33.615Z,7.60
2019-01-29T19:25:07.114Z,7.77
2019-01-29T19:27:38.174Z,7.53
2019-01-29T19:30:20.845Z,6.97
2019-01-29T19:32:51.797Z,6.97
2019-01-29T19:35:22.974Z,7.83
2019-01-29T19:37:53.961Z,7.23
2019-01-29T19:40:26.082Z,7.97
2019-01-29T19:42:57.350Z,8.33
2019-01-29T19:45:38.824Z,8.33
2019-01-29T19:48:09.918Z,7.97
2019-01-29T19:50:41.000Z,7.57
2019-01-29T19:53:12.048Z,9.10
2019-01-29T19:55:43.352Z,8.57
2019-01-29T19:58:14.303Z,8.60
2019-01-29T20:00:45.419Z,7.63
2019-01-29T20:03:16.724Z,8.60
2019-01-29T20:05:47.990Z,7.73
2019-01-29T20:08:19.132Z,8.10
2019-01-29T20:10:50.145Z,7.77
2019-01-29T20:13:22.727Z,7.40
2019-01-29T20:15:53.724Z,8.23
2019-01-29T20:18:24.896Z,7.40
2019-01-29T20:20:55.814Z,7.70
2019-01-29T20:23:26.764Z,7.60
2019-01-29T20:25:57.940Z,7.97
2019-01-29T20:28:28.976Z,7.77
2019-01-29T20:31:00.061Z,8.40
2019-01-29T20:33:31.035Z,8.67
2019-01-29T20:36:02.099Z,8.40
2019-01-29T20:38:35.235Z,9.13
2019-01-29T20:41:05.804Z,9.00
2019-01-29T20:43:36.886Z,9.90
2019-01-29T20:46:07.907Z,9.33
2019-01-29T20:48:39.029Z,8.27
2019-01-29T20:51:10.112Z,8.73
2019-01-29T20:53:41.090Z,8.97
2019-01-29T20:56:11.961Z,9.23
2019-01-29T20:58:52.290Z,9.53
2019-01-29T21:01:15.664Z,9.93
2019-01-29T21:03:46.774Z,9.97
2019-01-29T21:06:17.785Z,9.90
2019-01-29T21:08:48.709Z,10.77
2019-01-29T21:11:20.003Z,10.80
2019-01-29T21:13:51.178Z,11.23
2019-01-29T21:16:22.140Z,10.70
2019-01-29T21:18:53.091Z,12.00
2019-01-29T21:21:24.201Z,12.37
2019-01-29T21:23:55.248Z,11.77
2019-01-29T21:26:26.268Z,10.73
2019-01-29T21:29:03.238Z,11.57
2019-01-29T21:31:29.918Z,11.50
2019-01-29T21:34:00.882Z,12.23
2019-01-29T21:36:31.758Z,12.53
2019-01-29T21:39:03.228Z,12.50
2019-01-29T21:41:34.265Z,11.97
2019-01-29T21:44:05.615Z,12.60
2019-01-29T21:46:36.701Z,11.70
2019-01-29T21:49:07.792Z,12.20
2019-01-29T21:51:38.930Z,13.03
2019-01-29T21:54:09.989Z,11.43
2019-01-29T21:56:40.961Z,11.37
2019-01-29T21:59:13.298Z,10.93
2019-01-29T22:01:44.808Z,11.57
2019-01-29T22:04:15.867Z,11.70
2019-01-29T22:06:53.153Z,11.07
2019-01-29T22:09:30.645Z,11.90
2019-01-29T22:12:01.612Z,11.70
2019-01-29T22:14:32.595Z,11.63
2019-01-29T22:17:03.502Z,11.00
2019-01-29T22:19:34.486Z,10.87
2019-01-29T22:22:05.613Z,11.80
2019-01-29T22:24:36.571Z,11.67
2019-01-29T22:27:07.643Z,11.53
2019-01-29T22:29:38.659Z,12.20
2019-01-29T22:32:09.641Z,12.07
2019-01-29T22:34:40.603Z,13.00
2019-01-29T22:37:11.705Z,12.80
2019-01-29T22:39:42.811Z,12.20
2019-01-29T22:42:13.934Z,13.53
2019-01-29T22:44:44.842Z,12.77
2019-01-29T22:47:15.768Z,14.90
2019-01-29T22:49:46.919Z,15.83
2019-01-29T22:52:17.883Z,16.73
2019-01-29T22:54:48.928Z,14.07
2019-01-29T22:57:19.869Z,14.13
2019-01-29T22:59:50.880Z,14.50
2019-01-29T23:02:21.964Z,13.63
2019-01-29T23:04:52.934Z,13.70
2019-01-29T23:07:24.024Z,14.50
2019-01-29T23:09:55.117Z,13.27
2019-01-29T23:12:26.292Z,14.00
2019-01-29T23:14:57.188Z,13.93
2019-01-29T23:17:28.126Z,13.63
2019-01-29T23:19:59.207Z,14.07
2019-01-29T23:22:30.151Z,13.03
2019-01-29T23:25:01.122Z,13.27
2019-01-29T23:27:32.264Z,13.70
2019-01-29T23:30:03.275Z,12.57
2019-01-29T23:32:34.226Z,13.00
2019-01-29T23:35:06.987Z,12.77
2019-01-29T23:37:37.967Z,12.03
2019-01-29T23:40:14.827Z,12.10
2019-01-29T23:42:45.867Z,12.03
2019-01-29T23:45:17.224Z,14.93
2019-01-29T23:47:49.901Z,11.17
2019-01-29T23:50:20.973Z,11.93
2019-01-29T23:52:51.871Z,12.87
2019-01-29T23:55:22.914Z,19.33
2019-01-29T23:57:53.938Z,17.13
